createdAt,value
2017-09-30T00:00:06.927Z,13.66
2017-09-30T00:01:06.929Z,13.65
2017-09-30T00:02:06.932Z,13.62
2017-09-30T00:03:06.936Z,13.57
2017-09-30T00:04:06.971Z,13.58
2017-09-30T00:05:06.944Z,13.58
2017-09-30T00:06:06.949Z,13.59
2017-09-30T00:07:06.951Z,13.63
2017-09-30T00:08:06.957Z,13.66
2017-09-30T00:09:06.973Z,13.71
2017-09-30T00:10:06.957Z,13.76
2017-09-30T00:11:06.965Z,13.80
2017-09-30T00:12:06.964Z,13.86
2017-09-30T00:13:06.968Z,13.88
2017-09-30T00:14:06.969Z,13.95
2017-09-30T00:15:06.981Z,14.00
2017-09-30T00:16:06.982Z,14.01
2017-09-30T00:17:06.981Z,14.06
2017-09-30T00:18:06.987Z,14.07
2017-09-30T00:19:06.989Z,14.12
2017-09-30T00:20:07.002Z,14.13
2017-09-30T00:21:06.995Z,14.12
2017-09-30T00:22:06.997Z,14.14
2017-09-30T00:23:07.004Z,14.16
2017-09-30T00:24:07.004Z,14.17
2017-09-30T00:25:07.007Z,14.19
2017-09-30T00:26:07.010Z,14.18
2017-09-30T00:27:07.018Z,14.15
2017-09-30T00:28:07.072Z,14.13
2017-09-30T00:29:07.029Z,14.15
2017-09-30T00:30:07.025Z,14.17
2017-09-30T00:31:07.030Z,14.18
2017-09-30T00:32:07.034Z,14.20
2017-09-30T00:33:07.039Z,14.17
2017-09-30T00:34:07.045Z,14.14
2017-09-30T00:35:07.052Z,14.08
2017-09-30T00:36:07.045Z,14.00
2017-09-30T00:37:07.055Z,13.96
2017-09-30T00:38:07.052Z,13.91
2017-09-30T00:39:07.052Z,13.88
2017-09-30T00:40:07.059Z,13.84
2017-09-30T00:41:07.059Z,13.78
2017-09-30T00:42:07.067Z,13.74
2017-09-30T00:43:07.067Z,13.72
2017-09-30T00:44:07.070Z,13.70
2017-09-30T00:45:07.074Z,13.68
2017-09-30T00:46:07.083Z,13.65
2017-09-30T00:47:07.085Z,13.64
2017-09-30T00:48:07.090Z,13.62
2017-09-30T00:49:07.092Z,13.61
2017-09-30T00:50:07.092Z,13.64
2017-09-30T00:51:07.094Z,13.62
2017-09-30T00:52:07.094Z,13.62
2017-09-30T00:53:07.105Z,13.59
2017-09-30T00:54:07.108Z,13.57
2017-09-30T00:55:07.103Z,13.53
2017-09-30T00:56:07.108Z,13.49
2017-09-30T00:57:07.112Z,13.45
2017-09-30T00:58:07.141Z,13.41
2017-09-30T00:59:07.126Z,13.37
2017-09-30T01:03:09.876Z,13.35
2017-09-30T01:03:11.669Z,13.31
2017-09-30T01:03:12.675Z,13.27
2017-09-30T01:03:13.789Z,13.25
2017-09-30T01:05:50.916Z,13.24
2017-09-30T01:05:52.736Z,13.21
2017-09-30T01:08:29.552Z,13.21
2017-09-30T01:08:31.044Z,13.19
2017-09-30T01:08:31.856Z,13.17
2017-09-30T01:09:07.152Z,13.16
2017-09-30T01:11:55.905Z,13.11
2017-09-30T01:11:57.606Z,13.08
2017-09-30T01:14:28.996Z,13.08
2017-09-30T01:14:30.398Z,13.09
2017-09-30T01:14:31.212Z,13.08
2017-09-30T01:15:07.185Z,13.07
2017-09-30T01:17:59.929Z,13.07
2017-09-30T01:18:01.742Z,13.03
2017-09-30T01:21:06.929Z,13.02
2017-09-30T01:21:08.617Z,13.02
2017-09-30T01:21:09.546Z,13.00
2017-09-30T01:21:10.544Z,12.99
2017-09-30T01:23:59.915Z,12.98
2017-09-30T01:24:02.523Z,12.96
2017-09-30T01:26:33.130Z,12.95
2017-09-30T01:26:35.148Z,12.95
2017-09-30T01:26:35.968Z,12.95
2017-09-30T01:27:07.215Z,12.96
2017-09-30T01:30:00.183Z,12.98
2017-09-30T01:30:02.700Z,12.99
2017-09-30T01:32:32.133Z,12.98
2017-09-30T01:32:33.638Z,12.99
2017-09-30T01:32:34.441Z,13.00
2017-09-30T01:35:40.840Z,13.01
2017-09-30T01:35:42.626Z,13.00
2017-09-30T01:35:43.649Z,12.97
2017-09-30T01:38:30.196Z,12.98
2017-09-30T01:38:31.660Z,12.97
2017-09-30T01:38:32.468Z,12.99
2017-09-30T01:39:07.251Z,13.00
2017-09-30T01:41:41.898Z,13.00
2017-09-30T01:41:44.090Z,13.00
2017-09-30T01:45:07.076Z,13.00
2017-09-30T01:45:08.511Z,13.00
2017-09-30T01:45:09.323Z,13.00
2017-09-30T01:45:10.236Z,13.00
2017-09-30T01:47:48.878Z,12.98
2017-09-30T01:47:50.637Z,12.98
2017-09-30T01:50:29.975Z,12.98
2017-09-30T01:50:31.453Z,12.98
2017-09-30T01:50:32.061Z,12.98
2017-09-30T01:51:07.294Z,12.98
2017-09-30T01:53:42.947Z,12.97
2017-09-30T01:53:44.845Z,12.97
2017-09-30T01:56:39.926Z,12.96
2017-09-30T01:56:42.005Z,12.94
2017-09-30T01:56:42.823Z,12.94
2017-09-30T01:57:07.320Z,12.94
2017-09-30T01:59:43.852Z,12.93
2017-09-30T01:59:45.784Z,12.93
2017-09-30T02:00:07.339Z,12.92
2017-09-30T02:01:07.333Z,12.91
2017-09-30T02:02:07.328Z,12.89
2017-09-30T02:03:07.336Z,12.88
2017-09-30T02:04:07.338Z,12.86
2017-09-30T02:05:07.341Z,12.84
2017-09-30T02:06:07.343Z,12.83
2017-09-30T02:07:07.347Z,12.82
2017-09-30T02:08:07.348Z,12.79
2017-09-30T02:09:07.361Z,12.78
2017-09-30T02:10:07.356Z,12.79
2017-09-30T02:11:07.363Z,12.79
2017-09-30T02:12:07.365Z,12.78
2017-09-30T02:13:07.367Z,12.75
2017-09-30T02:14:07.370Z,12.74
2017-09-30T02:15:07.380Z,12.72
2017-09-30T02:16:07.376Z,12.72
2017-09-30T02:17:07.379Z,12.72
2017-09-30T02:18:07.391Z,12.71
2017-09-30T02:19:07.393Z,12.71
2017-09-30T02:20:07.389Z,12.70
2017-09-30T02:21:07.389Z,12.72
2017-09-30T02:22:07.394Z,12.69
2017-09-30T02:23:07.398Z,12.67
2017-09-30T02:24:07.401Z,12.68
2017-09-30T02:25:07.405Z,12.66
2017-09-30T02:26:07.409Z,12.67
2017-09-30T02:27:07.410Z,12.68
2017-09-30T02:28:07.419Z,12.68
2017-09-30T02:29:07.420Z,12.65
2017-09-30T02:30:07.424Z,12.66
2017-09-30T02:31:07.432Z,12.64
2017-09-30T02:32:07.454Z,12.67
2017-09-30T02:33:07.443Z,12.68
2017-09-30T02:34:07.434Z,12.67
2017-09-30T02:35:07.439Z,12.69
2017-09-30T02:36:07.443Z,12.71
2017-09-30T02:37:07.448Z,12.71
2017-09-30T02:38:07.448Z,12.70
2017-09-30T02:39:07.451Z,12.63
2017-09-30T02:40:07.456Z,12.63
2017-09-30T02:41:07.461Z,12.65
2017-09-30T02:42:07.462Z,12.67
2017-09-30T02:43:07.465Z,12.64
2017-09-30T02:44:07.470Z,12.61
2017-09-30T02:45:07.485Z,12.63
2017-09-30T02:46:07.472Z,12.63
2017-09-30T02:47:07.477Z,12.66
2017-09-30T02:48:07.483Z,12.67
2017-09-30T02:49:07.492Z,12.67
2017-09-30T02:50:07.492Z,12.64
2017-09-30T02:51:07.496Z,12.59
2017-09-30T02:52:07.508Z,12.59
2017-09-30T02:53:07.518Z,12.60
2017-09-30T02:54:07.514Z,12.62
2017-09-30T02:55:07.528Z,12.67
2017-09-30T02:56:07.509Z,12.71
2017-09-30T02:57:07.515Z,12.71
2017-09-30T02:58:07.515Z,12.72
2017-09-30T02:59:07.518Z,12.68
2017-09-30T03:00:07.526Z,12.68
2017-09-30T03:01:07.530Z,12.67
2017-09-30T03:02:07.536Z,12.67
2017-09-30T03:03:07.542Z,12.69
2017-09-30T03:04:07.539Z,12.69
2017-09-30T03:05:07.538Z,12.69
2017-09-30T03:06:07.548Z,12.72
2017-09-30T03:07:07.554Z,12.74
2017-09-30T03:08:07.547Z,12.70
2017-09-30T03:09:07.556Z,12.66
2017-09-30T03:10:07.554Z,12.68
2017-09-30T03:11:07.558Z,12.69
2017-09-30T03:12:07.562Z,12.67
2017-09-30T03:13:07.577Z,12.69
2017-09-30T03:14:07.580Z,12.71
2017-09-30T03:15:07.572Z,12.73
2017-09-30T03:16:07.575Z,12.74
2017-09-30T03:17:07.579Z,12.76
2017-09-30T03:18:07.585Z,12.76
2017-09-30T03:19:07.585Z,12.76
2017-09-30T03:20:07.590Z,12.77
2017-09-30T03:21:07.594Z,12.78
2017-09-30T03:22:07.600Z,12.80
2017-09-30T03:23:07.599Z,12.83
2017-09-30T03:24:07.604Z,12.88
2017-09-30T03:25:07.603Z,12.95
2017-09-30T03:26:07.606Z,13.00
2017-09-30T03:27:07.609Z,12.97
2017-09-30T03:28:07.617Z,12.98
2017-09-30T03:29:07.621Z,12.98
2017-09-30T03:30:07.631Z,12.99
2017-09-30T03:31:07.626Z,12.99
2017-09-30T03:32:07.634Z,12.99
2017-09-30T03:33:07.645Z,12.98
2017-09-30T03:33:57.770Z,12.98
2017-09-30T03:36:12.751Z,12.96
2017-09-30T03:36:14.361Z,12.91
2017-09-30T03:36:15.272Z,12.90
2017-09-30T03:37:07.650Z,12.90
2017-09-30T03:38:07.651Z,12.92
2017-09-30T03:39:07.655Z,12.96
2017-09-30T03:40:07.664Z,12.98
2017-09-30T03:41:07.661Z,13.01
2017-09-30T03:42:07.665Z,13.06
2017-09-30T03:43:07.668Z,13.14
2017-09-30T03:44:07.677Z,13.20
2017-09-30T03:45:07.676Z,13.26
2017-09-30T03:46:07.692Z,13.31
2017-09-30T03:47:07.685Z,13.36
2017-09-30T03:48:07.694Z,13.40
2017-09-30T03:49:07.687Z,13.44
2017-09-30T03:50:07.688Z,13.47
2017-09-30T03:51:07.695Z,13.49
2017-09-30T03:52:07.695Z,13.54
2017-09-30T03:53:07.699Z,13.56
2017-09-30T03:54:07.707Z,13.57
2017-09-30T03:55:07.710Z,13.60
2017-09-30T03:56:07.710Z,13.62
2017-09-30T03:57:07.715Z,13.64
2017-09-30T03:58:07.716Z,13.65
2017-09-30T03:59:07.719Z,13.67
2017-09-30T04:00:07.734Z,13.69
2017-09-30T04:01:07.731Z,13.70
2017-09-30T04:02:07.741Z,13.71
2017-09-30T04:03:07.742Z,13.72
2017-09-30T04:04:07.749Z,13.72
2017-09-30T04:05:07.743Z,13.70
2017-09-30T04:06:07.749Z,13.71
2017-09-30T04:07:07.745Z,13.72
2017-09-30T04:08:07.752Z,13.71
2017-09-30T04:09:07.753Z,13.71
2017-09-30T04:10:07.759Z,13.72
2017-09-30T04:11:07.761Z,13.75
2017-09-30T04:12:07.772Z,13.76
2017-09-30T04:13:08.098Z,13.76
2017-09-30T04:14:07.781Z,13.77
2017-09-30T04:15:07.778Z,13.78
2017-09-30T04:16:07.784Z,13.78
2017-09-30T04:17:07.793Z,13.79
2017-09-30T04:18:07.786Z,13.79
2017-09-30T04:19:07.790Z,13.78
2017-09-30T04:20:07.792Z,13.79
2017-09-30T04:21:07.798Z,13.78
2017-09-30T04:22:07.800Z,13.78
2017-09-30T04:23:07.801Z,13.79
2017-09-30T04:24:07.808Z,13.78
2017-09-30T04:25:07.811Z,13.80
2017-09-30T04:26:07.814Z,13.79
2017-09-30T04:27:07.821Z,13.78
2017-09-30T04:28:07.821Z,13.79
2017-09-30T04:29:07.822Z,13.79
2017-09-30T04:30:07.891Z,13.78
2017-09-30T04:31:07.829Z,13.80
2017-09-30T04:32:07.840Z,13.79
2017-09-30T04:33:07.841Z,13.80
2017-09-30T04:34:07.849Z,13.81
2017-09-30T04:35:07.873Z,13.82
2017-09-30T04:36:07.843Z,13.80
2017-09-30T04:37:07.847Z,13.81
2017-09-30T04:38:07.855Z,13.81
2017-09-30T04:39:07.865Z,13.82
2017-09-30T04:40:07.859Z,13.82
2017-09-30T04:41:07.874Z,13.83
2017-09-30T04:42:07.865Z,13.83
2017-09-30T04:43:07.866Z,13.83
2017-09-30T04:44:07.873Z,13.82
2017-09-30T04:45:07.878Z,13.83
2017-09-30T04:46:07.882Z,13.83
2017-09-30T04:47:07.881Z,13.83
2017-09-30T04:48:07.886Z,13.84
2017-09-30T04:49:07.889Z,13.85
2017-09-30T04:50:07.890Z,13.84
2017-09-30T04:51:07.895Z,13.85
2017-09-30T04:52:07.899Z,13.85
2017-09-30T04:53:07.900Z,13.86
2017-09-30T04:54:07.909Z,13.86
2017-09-30T04:55:07.913Z,13.86
2017-09-30T04:56:07.911Z,13.85
2017-09-30T04:57:07.912Z,13.85
2017-09-30T04:58:07.915Z,13.85
2017-09-30T04:59:07.929Z,13.85
2017-09-30T05:00:08.001Z,13.86
2017-09-30T05:01:07.927Z,13.86
2017-09-30T05:02:07.931Z,13.86
2017-09-30T05:03:07.938Z,13.85
2017-09-30T05:04:07.942Z,13.85
2017-09-30T05:05:07.949Z,13.85
2017-09-30T05:06:07.943Z,13.84
2017-09-30T05:07:07.950Z,13.85
2017-09-30T05:08:07.949Z,13.85
2017-09-30T05:09:07.959Z,13.85
2017-09-30T05:10:07.960Z,13.87
2017-09-30T05:11:07.961Z,13.88
2017-09-30T05:12:07.969Z,13.88
2017-09-30T05:13:07.968Z,13.89
2017-09-30T05:14:08.272Z,13.89
2017-09-30T05:15:07.974Z,13.89
2017-09-30T05:16:07.975Z,13.89
2017-09-30T05:17:07.983Z,13.89
2017-09-30T05:18:07.985Z,13.90
2017-09-30T05:19:07.988Z,13.90
2017-09-30T05:20:07.992Z,13.89
2017-09-30T05:21:07.991Z,13.88
2017-09-30T05:22:07.998Z,13.86
2017-09-30T05:23:08.006Z,13.85
2017-09-30T05:24:08.009Z,13.83
2017-09-30T05:25:08.016Z,13.83
2017-09-30T05:26:08.011Z,13.83
2017-09-30T05:27:08.019Z,13.83
2017-09-30T05:28:08.016Z,13.81
2017-09-30T05:29:08.021Z,13.81
2017-09-30T05:30:08.026Z,13.81
2017-09-30T05:31:08.026Z,13.82
2017-09-30T05:32:08.032Z,13.83
2017-09-30T05:33:08.031Z,13.85
2017-09-30T05:34:08.040Z,13.85
2017-09-30T05:35:08.049Z,13.86
2017-09-30T05:36:08.046Z,13.88
2017-09-30T05:37:08.045Z,13.90
2017-09-30T05:38:08.050Z,13.93
2017-09-30T05:39:08.051Z,13.96
2017-09-30T05:40:08.056Z,13.96
2017-09-30T05:41:08.100Z,13.95
2017-09-30T05:42:08.067Z,13.98
2017-09-30T05:43:08.075Z,14.00
2017-09-30T05:44:08.069Z,14.02
2017-09-30T05:45:08.076Z,14.03
2017-09-30T05:46:08.077Z,14.04
2017-09-30T05:47:08.089Z,14.03
2017-09-30T05:48:08.084Z,14.03
2017-09-30T05:49:08.085Z,14.03
2017-09-30T05:50:08.091Z,14.02
2017-09-30T05:51:08.096Z,14.03
2017-09-30T05:52:08.100Z,14.03
2017-09-30T05:53:08.101Z,14.04
2017-09-30T05:54:08.102Z,14.06
2017-09-30T05:55:08.106Z,14.08
2017-09-30T05:56:08.111Z,14.10
2017-09-30T05:57:08.113Z,14.11
2017-09-30T05:58:08.116Z,14.14
2017-09-30T05:59:08.119Z,14.14
2017-09-30T06:00:08.129Z,14.15
2017-09-30T06:01:08.126Z,14.16
2017-09-30T06:02:08.208Z,14.18
2017-09-30T06:03:08.139Z,14.20
2017-09-30T06:04:08.138Z,14.22
2017-09-30T06:05:08.147Z,14.23
2017-09-30T06:06:08.150Z,14.24
2017-09-30T06:07:08.159Z,14.26
2017-09-30T06:08:08.152Z,14.26
2017-09-30T06:09:08.154Z,14.28
2017-09-30T06:10:08.161Z,14.30
2017-09-30T06:11:08.161Z,14.29
2017-09-30T06:12:08.165Z,14.31
2017-09-30T06:13:08.166Z,14.33
2017-09-30T06:14:08.176Z,14.34
2017-09-30T06:15:08.172Z,14.36
2017-09-30T06:16:08.176Z,14.38
2017-09-30T06:17:08.185Z,14.39
2017-09-30T06:18:08.183Z,14.41
2017-09-30T06:19:08.188Z,14.43
2017-09-30T06:20:08.190Z,14.45
2017-09-30T06:21:08.200Z,14.44
2017-09-30T06:22:08.202Z,14.45
2017-09-30T06:23:08.199Z,14.47
2017-09-30T06:24:08.201Z,14.48
2017-09-30T06:25:08.207Z,14.48
2017-09-30T06:26:08.211Z,14.49
2017-09-30T06:27:08.213Z,14.51
2017-09-30T06:28:08.255Z,14.52
2017-09-30T06:29:08.219Z,14.52
2017-09-30T06:30:08.223Z,14.54
2017-09-30T06:31:08.226Z,14.55
2017-09-30T06:32:08.228Z,14.57
2017-09-30T06:33:08.230Z,14.58
2017-09-30T06:34:08.235Z,14.58
2017-09-30T06:35:08.244Z,14.59
2017-09-30T06:36:08.249Z,14.58
2017-09-30T06:37:08.243Z,14.58
2017-09-30T06:38:08.248Z,14.58
2017-09-30T06:39:08.298Z,14.54
2017-09-30T06:40:08.258Z,14.52
2017-09-30T06:41:08.334Z,14.53
2017-09-30T06:42:08.266Z,14.50
2017-09-30T06:43:08.264Z,14.51
2017-09-30T06:44:08.269Z,14.50
2017-09-30T06:45:08.272Z,14.49
2017-09-30T06:46:08.280Z,14.49
2017-09-30T06:47:08.325Z,14.48
2017-09-30T06:48:08.280Z,14.48
2017-09-30T06:49:08.300Z,14.49
2017-09-30T06:50:08.291Z,14.46
2017-09-30T06:51:08.299Z,14.45
2017-09-30T06:52:08.290Z,14.45
2017-09-30T06:53:08.340Z,14.46
2017-09-30T06:54:08.298Z,14.45
2017-09-30T06:55:08.303Z,14.45
2017-09-30T06:56:08.305Z,14.45
2017-09-30T06:57:08.320Z,14.47
2017-09-30T06:58:08.310Z,14.49
2017-09-30T06:59:08.320Z,14.47
2017-09-30T07:00:08.327Z,14.48
2017-09-30T07:01:08.331Z,14.49
2017-09-30T07:02:08.323Z,14.50
2017-09-30T07:03:08.334Z,14.51
2017-09-30T07:04:08.344Z,14.53
2017-09-30T07:05:08.335Z,14.54
2017-09-30T07:06:08.347Z,14.55
2017-09-30T07:07:08.362Z,14.57
2017-09-30T07:08:08.344Z,14.55
2017-09-30T07:09:08.353Z,14.56
2017-09-30T07:10:08.355Z,14.56
2017-09-30T07:11:08.360Z,14.60
2017-09-30T07:12:08.365Z,14.61
2017-09-30T07:13:08.379Z,14.65
2017-09-30T07:14:08.665Z,14.69
2017-09-30T07:15:08.375Z,14.73
2017-09-30T07:16:08.372Z,14.79
2017-09-30T07:17:08.373Z,14.85
2017-09-30T07:18:08.378Z,15.06
2017-09-30T07:19:08.381Z,15.27
2017-09-30T07:20:08.384Z,15.52
2017-09-30T07:21:08.388Z,15.84
2017-09-30T07:22:08.396Z,16.15
2017-09-30T07:23:08.398Z,16.45
2017-09-30T07:24:08.424Z,16.62
2017-09-30T07:25:08.404Z,16.75
2017-09-30T07:26:08.407Z,16.81
2017-09-30T07:27:08.416Z,16.80
2017-09-30T07:28:08.430Z,16.83
2017-09-30T07:29:08.420Z,16.87
2017-09-30T07:30:08.420Z,16.88
2017-09-30T07:31:08.440Z,16.86
2017-09-30T07:32:08.430Z,16.88
2017-09-30T07:33:08.429Z,16.97
2017-09-30T07:34:08.439Z,17.07
2017-09-30T07:35:08.446Z,17.21
2017-09-30T07:36:08.441Z,17.28
2017-09-30T07:37:08.445Z,17.38
2017-09-30T07:38:08.444Z,17.48
2017-09-30T07:39:08.449Z,17.63
2017-09-30T07:40:08.451Z,17.72
2017-09-30T07:41:08.452Z,17.89
2017-09-30T07:42:08.460Z,17.99
2017-09-30T07:43:08.461Z,18.18
2017-09-30T07:44:08.465Z,18.27
2017-09-30T07:45:08.470Z,18.07
2017-09-30T07:46:08.470Z,18.13
2017-09-30T07:47:08.477Z,18.18
2017-09-30T07:48:08.480Z,18.22
2017-09-30T07:49:08.481Z,18.22
2017-09-30T07:50:08.483Z,18.20
2017-09-30T07:51:08.493Z,18.08
2017-09-30T07:52:08.493Z,17.95
2017-09-30T07:53:08.496Z,17.93
2017-09-30T07:54:08.499Z,18.07
2017-09-30T07:55:08.504Z,18.11
2017-09-30T07:56:08.512Z,17.91
2017-09-30T07:57:08.510Z,17.90
2017-09-30T07:58:08.513Z,17.81
2017-09-30T07:59:08.516Z,17.79
2017-09-30T08:00:08.527Z,17.72
2017-09-30T08:01:08.541Z,17.72
2017-09-30T08:02:08.527Z,17.82
2017-09-30T08:03:08.534Z,17.88
2017-09-30T08:04:08.531Z,18.04
2017-09-30T08:05:08.535Z,18.28
2017-09-30T08:06:08.544Z,18.46
2017-09-30T08:07:08.549Z,18.78
2017-09-30T08:08:08.551Z,19.03
2017-09-30T08:09:08.548Z,19.30
2017-09-30T08:10:08.550Z,19.53
2017-09-30T08:11:08.554Z,19.76
2017-09-30T08:12:08.555Z,19.78
2017-09-30T08:13:08.563Z,19.75
2017-09-30T08:14:08.563Z,19.69
2017-09-30T08:15:08.568Z,19.72
2017-09-30T08:16:08.573Z,19.81
2017-09-30T08:17:08.574Z,19.93
2017-09-30T08:18:08.790Z,19.98
2017-09-30T08:19:08.580Z,19.83
2017-09-30T08:20:08.789Z,19.77
2017-09-30T08:21:08.593Z,19.74
2017-09-30T08:22:08.591Z,19.67
2017-09-30T08:23:08.760Z,19.62
2017-09-30T08:24:08.596Z,19.71
2017-09-30T08:25:08.604Z,19.78
2017-09-30T08:26:08.611Z,19.75
2017-09-30T08:27:08.609Z,19.74
2017-09-30T08:28:08.742Z,19.70
2017-09-30T08:29:08.617Z,19.54
2017-09-30T08:30:08.648Z,19.52
2017-09-30T08:31:08.623Z,19.43
2017-09-30T08:32:08.623Z,19.38
2017-09-30T08:33:08.630Z,19.35
2017-09-30T08:34:08.631Z,19.32
2017-09-30T08:35:08.638Z,19.36
2017-09-30T08:36:08.638Z,19.45
2017-09-30T08:37:08.643Z,19.53
2017-09-30T08:38:08.653Z,19.52
2017-09-30T08:39:08.658Z,19.62
2017-09-30T08:40:08.651Z,19.62
2017-09-30T08:41:08.660Z,19.67
2017-09-30T08:42:08.660Z,19.64
2017-09-30T08:43:08.665Z,19.63
2017-09-30T08:44:08.666Z,19.72
2017-09-30T08:45:08.670Z,19.77
2017-09-30T08:46:08.672Z,19.76
2017-09-30T08:47:08.675Z,19.79
2017-09-30T08:48:08.680Z,19.78
2017-09-30T08:49:08.686Z,19.76
2017-09-30T08:50:08.684Z,19.87
2017-09-30T08:51:08.695Z,19.97
2017-09-30T08:52:08.702Z,20.17
2017-09-30T08:53:08.704Z,20.30
2017-09-30T08:54:08.700Z,20.39
2017-09-30T08:55:08.705Z,20.62
2017-09-30T08:56:08.705Z,20.80
2017-09-30T08:57:08.708Z,20.85
2017-09-30T08:58:08.716Z,20.74
2017-09-30T08:59:08.715Z,20.92
2017-09-30T09:00:08.731Z,20.96
2017-09-30T09:01:08.727Z,21.00
2017-09-30T09:02:08.730Z,21.00
2017-09-30T09:03:08.729Z,20.97
2017-09-30T09:04:08.759Z,20.85
2017-09-30T09:05:08.741Z,20.91
2017-09-30T09:06:08.739Z,20.79
2017-09-30T09:07:08.747Z,20.73
2017-09-30T09:08:08.748Z,20.85
2017-09-30T09:09:08.754Z,20.85
2017-09-30T09:10:08.750Z,20.89
2017-09-30T09:11:08.756Z,20.90
2017-09-30T09:12:08.762Z,20.76
2017-09-30T09:13:08.765Z,20.69
2017-09-30T09:14:08.766Z,20.65
2017-09-30T09:15:08.772Z,20.69
2017-09-30T09:16:08.776Z,20.74
2017-09-30T09:17:08.777Z,20.67
2017-09-30T09:18:08.778Z,20.55
2017-09-30T09:19:08.786Z,20.39
2017-09-30T09:20:08.791Z,20.29
2017-09-30T09:21:08.789Z,20.32
2017-09-30T09:22:08.792Z,20.34
2017-09-30T09:23:08.794Z,20.14
2017-09-30T09:24:08.799Z,20.04
2017-09-30T09:25:08.801Z,20.10
2017-09-30T09:26:08.803Z,20.24
2017-09-30T09:27:08.810Z,20.32
2017-09-30T09:28:08.815Z,20.31
2017-09-30T09:29:08.820Z,20.30
2017-09-30T09:30:08.818Z,20.43
2017-09-30T09:31:08.823Z,20.47
2017-09-30T09:32:08.828Z,20.61
2017-09-30T09:33:08.829Z,20.76
2017-09-30T09:34:08.868Z,20.75
2017-09-30T09:35:08.835Z,20.66
2017-09-30T09:36:08.843Z,20.33
2017-09-30T09:37:08.843Z,20.36
2017-09-30T09:38:08.846Z,20.40
2017-09-30T09:39:08.854Z,20.49
2017-09-30T09:40:08.866Z,20.58
2017-09-30T09:41:08.857Z,20.70
2017-09-30T09:42:08.862Z,20.70
2017-09-30T09:43:08.872Z,20.68
2017-09-30T09:44:08.865Z,20.69
2017-09-30T09:45:08.917Z,20.60
2017-09-30T09:46:08.890Z,20.65
2017-09-30T09:47:08.892Z,20.82
2017-09-30T09:48:08.884Z,20.98
2017-09-30T09:49:08.882Z,21.03
2017-09-30T09:50:08.885Z,21.03
2017-09-30T09:51:08.892Z,21.25
2017-09-30T09:52:08.893Z,21.39
2017-09-30T09:53:08.895Z,21.26
2017-09-30T09:54:08.897Z,21.32
2017-09-30T09:55:08.958Z,21.39
2017-09-30T09:56:09.310Z,21.27
2017-09-30T09:57:08.920Z,21.23
2017-09-30T09:58:08.912Z,21.18
2017-09-30T09:59:08.916Z,21.18
2017-09-30T10:00:08.919Z,21.16
2017-09-30T10:01:08.923Z,21.01
2017-09-30T10:02:09.005Z,21.04
2017-09-30T10:03:08.926Z,21.03
2017-09-30T10:04:08.931Z,21.08
2017-09-30T10:05:08.946Z,21.08
2017-09-30T10:06:08.999Z,21.25
2017-09-30T10:07:09.099Z,21.35
2017-09-30T10:08:08.991Z,21.46
2017-09-30T10:09:08.949Z,21.35
2017-09-30T10:10:08.964Z,21.32
2017-09-30T10:11:08.953Z,21.34
2017-09-30T10:12:08.989Z,21.20
2017-09-30T10:13:09.208Z,21.14
2017-09-30T10:14:08.971Z,21.13
2017-09-30T10:15:08.978Z,21.09
2017-09-30T10:16:09.005Z,21.29
2017-09-30T10:17:08.980Z,21.53
2017-09-30T10:18:08.978Z,21.62
2017-09-30T10:19:09.724Z,21.65
2017-09-30T10:20:09.013Z,21.75
2017-09-30T10:21:08.999Z,21.83
2017-09-30T10:22:08.990Z,21.86
2017-09-30T10:23:09.280Z,21.92
2017-09-30T10:24:09.012Z,21.99
2017-09-30T10:25:09.013Z,22.08
2017-09-30T10:26:09.011Z,21.98
2017-09-30T10:27:09.013Z,22.06
2017-09-30T10:28:09.021Z,22.19
2017-09-30T10:29:09.021Z,22.34
2017-09-30T10:30:09.017Z,22.54
2017-09-30T10:31:09.106Z,22.52
2017-09-30T10:32:09.034Z,22.35
2017-09-30T10:33:09.033Z,22.39
2017-09-30T10:34:09.034Z,22.48
2017-09-30T10:35:09.039Z,22.53
2017-09-30T10:36:10.939Z,22.63
2017-09-30T10:37:09.045Z,22.70
2017-09-30T10:38:09.054Z,22.79
2017-09-30T10:39:09.109Z,22.72
2017-09-30T10:40:09.073Z,22.46
2017-09-30T10:41:09.072Z,22.48
2017-09-30T10:42:09.060Z,22.63
2017-09-30T10:43:09.067Z,22.72
2017-09-30T10:44:09.078Z,22.47
2017-09-30T10:45:09.157Z,22.57
2017-09-30T10:46:12.011Z,22.65
2017-09-30T10:47:09.076Z,22.76
2017-09-30T10:48:09.082Z,22.78
2017-09-30T10:49:09.088Z,22.82
2017-09-30T10:50:09.096Z,22.72
2017-09-30T10:51:09.106Z,22.61
2017-09-30T10:52:09.095Z,22.74
2017-09-30T10:53:09.107Z,22.94
2017-09-30T10:54:09.102Z,22.89
2017-09-30T10:55:09.103Z,22.90
2017-09-30T10:56:09.109Z,22.75
2017-09-30T10:57:09.113Z,22.61
2017-09-30T10:58:09.112Z,22.63
2017-09-30T10:59:09.116Z,22.36
2017-09-30T11:00:09.198Z,22.13
2017-09-30T11:01:09.154Z,22.07
2017-09-30T11:02:21.384Z,22.04
2017-09-30T11:03:09.128Z,22.02
2017-09-30T11:04:09.136Z,21.86
2017-09-30T11:05:09.137Z,21.95
2017-09-30T11:06:09.143Z,22.07
2017-09-30T11:07:09.141Z,22.08
2017-09-30T11:08:09.164Z,22.08
2017-09-30T11:09:09.149Z,22.12
2017-09-30T11:10:09.155Z,22.27
2017-09-30T11:11:09.176Z,22.42
2017-09-30T11:12:09.156Z,22.52
2017-09-30T11:13:09.163Z,22.63
2017-09-30T11:14:09.167Z,22.70
2017-09-30T11:15:09.174Z,22.64
2017-09-30T11:16:09.175Z,22.79
2017-09-30T11:17:09.175Z,22.82
2017-09-30T11:18:09.185Z,22.73
2017-09-30T11:19:09.185Z,22.73
2017-09-30T11:20:09.190Z,22.86
2017-09-30T11:21:09.194Z,22.98
2017-09-30T11:22:09.200Z,23.04
2017-09-30T11:23:09.202Z,23.09
2017-09-30T11:24:09.204Z,23.22
2017-09-30T11:25:09.240Z,23.00
2017-09-30T11:26:09.215Z,22.78
2017-09-30T11:27:09.207Z,22.84
2017-09-30T11:28:09.223Z,23.10
2017-09-30T11:29:09.220Z,23.25
2017-09-30T11:30:09.238Z,23.27
2017-09-30T11:31:09.224Z,23.35
2017-09-30T11:32:09.294Z,23.41
2017-09-30T11:33:09.231Z,23.31
2017-09-30T11:34:09.233Z,23.44
2017-09-30T11:35:09.235Z,23.37
2017-09-30T11:36:09.403Z,23.12
2017-09-30T11:37:09.242Z,22.97
2017-09-30T11:38:09.288Z,22.95
2017-09-30T11:39:09.259Z,22.93
2017-09-30T11:40:09.251Z,22.93
2017-09-30T11:41:09.260Z,22.80
2017-09-30T11:42:09.263Z,22.66
2017-09-30T11:43:09.265Z,22.64
2017-09-30T11:44:09.267Z,22.65
2017-09-30T11:45:09.656Z,22.50
2017-09-30T11:46:09.385Z,22.45
2017-09-30T11:47:09.283Z,22.32
2017-09-30T11:48:09.278Z,22.31
2017-09-30T11:49:09.285Z,22.31
2017-09-30T11:50:09.456Z,22.27
2017-09-30T11:51:10.224Z,22.30
2017-09-30T11:52:09.295Z,22.34
2017-09-30T11:53:09.371Z,22.38
2017-09-30T11:54:09.430Z,22.43
2017-09-30T11:55:09.406Z,22.41
2017-09-30T11:56:09.587Z,22.38
2017-09-30T11:57:09.316Z,22.32
2017-09-30T11:58:09.701Z,22.28
2017-09-30T11:59:09.316Z,22.24
2017-09-30T12:00:09.318Z,22.23
2017-09-30T12:01:09.326Z,22.23
2017-09-30T12:02:09.329Z,22.27
2017-09-30T12:03:09.329Z,22.14
2017-09-30T12:04:09.343Z,22.11
2017-09-30T12:05:09.340Z,22.04
2017-09-30T12:06:09.343Z,22.03
2017-09-30T12:07:09.358Z,22.00
2017-09-30T12:08:09.349Z,21.97
2017-09-30T12:09:09.356Z,21.96
2017-09-30T12:10:09.351Z,21.89
2017-09-30T12:11:09.356Z,21.91
2017-09-30T12:12:09.365Z,21.89
2017-09-30T12:13:09.371Z,21.83
2017-09-30T12:14:09.384Z,21.72
2017-09-30T12:15:09.374Z,21.64
2017-09-30T12:16:09.504Z,21.66
2017-09-30T12:17:09.378Z,21.64
2017-09-30T12:18:09.378Z,21.63
2017-09-30T12:19:09.384Z,21.66
2017-09-30T12:20:09.389Z,21.68
2017-09-30T12:21:09.387Z,21.68
2017-09-30T12:22:09.395Z,21.65
2017-09-30T12:23:09.394Z,21.64
2017-09-30T12:24:09.398Z,21.65
2017-09-30T12:25:09.403Z,21.66
2017-09-30T12:26:09.407Z,21.68
2017-09-30T12:27:09.414Z,21.69
2017-09-30T12:28:09.413Z,21.71
2017-09-30T12:29:09.415Z,21.74
2017-09-30T12:30:09.420Z,21.75
2017-09-30T12:31:09.422Z,21.75
2017-09-30T12:32:09.425Z,21.76
2017-09-30T12:33:09.432Z,21.76
2017-09-30T12:34:09.592Z,21.67
2017-09-30T12:35:09.454Z,21.61
2017-09-30T12:36:09.768Z,21.64
2017-09-30T12:37:09.525Z,21.63
2017-09-30T12:38:09.756Z,21.61
2017-09-30T12:39:09.598Z,21.61
2017-09-30T12:40:09.597Z,21.56
2017-09-30T12:41:09.459Z,21.58
2017-09-30T12:42:09.463Z,21.56
2017-09-30T12:43:09.639Z,21.58
2017-09-30T12:44:09.564Z,21.58
2017-09-30T12:45:09.565Z,21.59
2017-09-30T12:46:09.614Z,21.61
2017-09-30T12:47:09.788Z,21.60
2017-09-30T12:48:09.576Z,21.65
2017-09-30T12:49:09.616Z,21.67
2017-09-30T12:50:09.493Z,21.72
2017-09-30T12:51:09.488Z,21.75